Time;durP1;ratioP1;P1;durP2;ratioP2;P2;SDS_P1;SDS_P2;PMS_P1;PMS_P2;Temp;Humidity;BMP_temperature;BMP_pressure;BME280_temperature;BME280_humidity;BME280_pressure;Samples;Min_cycle;Max_cycle;Signal;HPM_P1;HPM_P2
2023/05/07 00:01:43;;;;;;;14.75;8.10;;;11.50;99.90;;;;;;4971133;28;20138;-84
2023/05/07 00:04:09;;;;;;;12.05;7.85;;;11.50;99.90;;;;;;4971700;28;20038;-83
2023/05/07 00:06:34;;;;;;;12.07;7.60;;;11.40;99.90;;;;;;4971212;28;20030;-84
2023/05/07 00:09:00;;;;;;;12.68;7.35;;;11.40;99.90;;;;;;4971101;28;20042;-83
2023/05/07 00:11:27;;;;;;;12.45;7.22;;;11.40;99.90;;;;;;4970501;28;20049;-84
2023/05/07 00:13:52;;;;;;;14.00;7.70;;;11.40;99.90;;;;;;4970199;28;20047;-84
2023/05/07 00:16:18;;;;;;;11.63;7.43;;;11.40;99.90;;;;;;4972053;28;20034;-84
2023/05/07 00:18:44;;;;;;;14.93;7.10;;;11.30;99.90;;;;;;4970099;28;20158;-83
2023/05/07 00:21:10;;;;;;;9.57;7.28;;;11.30;99.90;;;;;;4970228;28;20086;-84
2023/05/07 00:23:36;;;;;;;11.82;7.78;;;11.40;99.90;;;;;;4970071;28;20039;-83
2023/05/07 00:26:02;;;;;;;12.07;7.53;;;11.30;99.90;;;;;;4972682;28;20027;-84
2023/05/07 00:28:27;;;;;;;11.73;7.40;;;11.30;99.90;;;;;;4970474;28;20103;-83
2023/05/07 00:30:53;;;;;;;10.35;7.07;;;11.30;99.90;;;;;;4970250;28;20035;-83
2023/05/07 00:33:20;;;;;;;11.33;6.73;;;11.30;99.90;;;;;;4970682;28;20070;-83
2023/05/07 00:35:45;;;;;;;9.00;7.10;;;11.30;99.90;;;;;;4971165;28;20031;-83
2023/05/07 00:38:11;;;;;;;10.63;7.35;;;11.30;99.90;;;;;;4969082;28;20097;-83
2023/05/07 00:40:37;;;;;;;12.55;8.23;;;11.30;99.90;;;;;;4970024;28;20088;-83
2023/05/07 00:43:02;;;;;;;16.48;7.45;;;11.30;99.90;;;;;;4969896;28;20046;-82
2023/05/07 00:45:29;;;;;;;11.63;7.10;;;11.30;99.90;;;;;;4971722;28;20045;-83
2023/05/07 00:47:57;;;;;;;11.27;6.50;;;11.20;99.90;;;;;;4972265;28;20038;-84
2023/05/07 00:50:23;;;;;;;9.73;6.53;;;11.20;99.90;;;;;;4973018;28;20031;-82
2023/05/07 00:52:48;;;;;;;15.80;6.80;;;11.20;99.90;;;;;;4972978;28;20134;-84
2023/05/07 00:55:17;;;;;;;9.47;6.43;;;11.20;99.90;;;;;;4972671;28;20051;-83
2023/05/07 00:57:42;;;;;;;8.10;6.10;;;11.10;99.90;;;;;;4971922;28;20039;-83
2023/05/07 01:00:09;;;;;;;10.00;6.73;;;11.10;99.90;;;;;;4971344;28;20102;-83
2023/05/07 01:02:35;;;;;;;9.73;6.73;;;11.10;99.90;;;;;;4972527;28;20108;-84
2023/05/07 01:05:03;;;;;;;9.45;6.35;;;11.10;99.90;;;;;;4971291;28;20034;-84
2023/05/07 01:07:30;;;;;;;13.68;7.13;;;11.10;99.90;;;;;;4972759;28;20069;-83
2023/05/07 01:09:56;;;;;;;12.93;6.90;;;11.10;99.90;;;;;;4973118;28;20023;-84
2023/05/07 01:12:23;;;;;;;11.00;7.57;;;11.20;99.90;;;;;;4973090;28;20035;-84
2023/05/07 01:14:49;;;;;;;14.03;6.83;;;11.20;99.90;;;;;;4972177;28;20043;-83
2023/05/07 01:17:15;;;;;;;7.55;6.60;;;11.20;99.90;;;;;;4970568;28;20031;-83
2023/05/07 01:19:41;;;;;;;8.07;6.50;;;11.20;99.90;;;;;;4972300;28;20041;-84
2023/05/07 01:22:14;;;;;;;8.05;6.63;;;11.20;99.90;;;;;;4972661;28;20094;-84
2023/05/07 01:24:41;;;;;;;12.98;6.88;;;11.20;99.90;;;;;;4973630;28;20026;-84
2023/05/07 01:27:06;;;;;;;11.67;8.27;;;11.10;99.90;;;;;;4971896;28;20090;-83
2023/05/07 01:29:32;;;;;;;13.07;8.30;;;11.10;99.90;;;;;;4971495;28;20031;-84
2023/05/07 01:31:59;;;;;;;14.43;8.30;;;11.10;99.90;;;;;;4972885;28;20050;-84
2023/05/07 01:34:28;;;;;;;13.45;7.68;;;11.10;99.90;;;;;;4973582;28;20047;-83
2023/05/07 01:36:57;;;;;;;12.10;8.40;;;11.10;99.90;;;;;;4971360;28;21534;-84
2023/05/07 01:39:25;;;;;;;12.65;7.85;;;11.10;99.90;;;;;;4972975;28;20045;-84
2023/05/07 01:41:51;;;;;;;10.40;7.30;;;11.10;99.90;;;;;;4971501;28;20037;-83
2023/05/07 01:44:18;;;;;;;13.05;8.27;;;11.10;99.90;;;;;;4972783;28;20461;-84
2023/05/07 01:46:43;;;;;;;18.00;9.10;;;11.10;99.90;;;;;;4974056;28;20085;-83
2023/05/07 01:49:09;;;;;;;12.68;7.90;;;11.10;99.90;;;;;;4973911;28;20783;-84
2023/05/07 01:51:36;;;;;;;13.63;7.73;;;11.10;99.90;;;;;;4974679;28;20037;-84
2023/05/07 01:54:01;;;;;;;11.77;7.27;;;11.10;99.90;;;;;;4972383;28;20575;-83
2023/05/07 01:56:28;;;;;;;11.47;7.33;;;11.10;99.90;;;;;;4975254;28;20038;-84
2023/05/07 01:58:54;;;;;;;13.43;7.03;;;11.10;99.90;;;;;;4976581;28;20077;-83
2023/05/07 02:01:20;;;;;;;9.32;6.97;;;11.10;99.90;;;;;;4974492;28;20056;-83
2023/05/07 02:03:45;;;;;;;12.33;7.47;;;11.10;99.90;;;;;;4975928;28;20046;-83
2023/05/07 02:06:11;;;;;;;8.83;6.97;;;11.10;99.90;;;;;;4976268;28;20189;-83
2023/05/07 02:08:36;;;;;;;9.50;6.47;;;11.00;99.90;;;;;;4986060;28;20039;-83
2023/05/07 02:11:02;;;;;;;10.03;6.50;;;11.00;99.90;;;;;;4974728;28;20034;-83
2023/05/07 02:13:33;;;;;;;7.97;6.20;;;11.00;99.90;;;;;;4975868;28;20039;-83
2023/05/07 02:15:58;;;;;;;6.47;5.77;;;11.00;99.90;;;;;;4974689;28;20041;-83
2023/05/07 02:18:24;;;;;;;9.27;6.93;;;10.90;99.90;;;;;;4974852;28;20094;-83
2023/05/07 02:20:49;;;;;;;9.67;6.43;;;10.90;99.90;;;;;;4975544;28;20028;-83
2023/05/07 02:23:15;;;;;;;9.50;6.90;;;10.90;99.90;;;;;;4977061;28;20343;-83
2023/05/07 02:25:41;;;;;;;13.33;6.97;;;10.90;99.90;;;;;;4974020;28;20081;-84
2023/05/07 02:28:06;;;;;;;10.57;7.20;;;10.80;99.90;;;;;;4975030;28;20161;-83
2023/05/07 02:30:32;;;;;;;10.17;6.67;;;10.80;99.90;;;;;;4975221;28;20031;-83
2023/05/07 02:32:58;;;;;;;9.57;7.20;;;10.80;99.90;;;;;;4974979;28;20134;-83
2023/05/07 02:35:25;;;;;;;9.13;6.90;;;10.80;99.90;;;;;;4973248;28;20074;-83
2023/05/07 02:37:50;;;;;;;8.17;6.43;;;10.80;99.90;;;;;;4975897;28;20123;-84
2023/05/07 02:40:16;;;;;;;10.30;7.10;;;10.80;99.90;;;;;;4975215;28;20035;-83
2023/05/07 02:42:41;;;;;;;11.47;6.90;;;10.70;99.90;;;;;;4974744;28;20019;-83
2023/05/07 02:45:07;;;;;;;6.93;5.90;;;10.70;99.90;;;;;;4974127;28;20090;-83
2023/05/07 02:47:33;;;;;;;9.77;6.10;;;10.70;99.90;;;;;;4973260;28;20034;-83
2023/05/07 02:49:58;;;;;;;8.00;6.43;;;10.70;99.90;;;;;;4973253;28;20030;-83
2023/05/07 02:52:24;;;;;;;7.07;6.07;;;10.70;99.90;;;;;;4975310;28;20035;-83
2023/05/07 02:54:50;;;;;;;7.63;6.03;;;10.70;99.90;;;;;;4973675;28;20204;-83
2023/05/07 02:57:15;;;;;;;8.00;5.93;;;10.70;99.90;;;;;;4972902;28;20042;-83
2023/05/07 02:59:42;;;;;;;8.73;6.00;;;10.60;99.90;;;;;;4972746;28;20065;-83
2023/05/07 03:02:07;;;;;;;9.10;5.80;;;10.60;99.90;;;;;;4972305;28;20035;-83
2023/05/07 03:04:33;;;;;;;9.00;5.37;;;10.60;99.90;;;;;;4968061;28;20050;-84
2023/05/07 03:06:58;;;;;;;7.70;6.17;;;10.60;99.90;;;;;;4967973;28;20031;-84
2023/05/07 03:09:24;;;;;;;8.73;6.40;;;10.60;99.90;;;;;;4968139;28;20040;-84
2023/05/07 03:11:49;;;;;;;7.90;5.67;;;10.50;99.90;;;;;;4968064;28;20041;-84
2023/05/07 03:14:15;;;;;;;7.63;6.17;;;10.50;99.90;;;;;;4946656;28;20050;-84
2023/05/07 03:16:41;;;;;;;7.90;6.03;;;10.50;99.90;;;;;;4961931;28;21295;-84
2023/05/07 03:19:06;;;;;;;7.43;6.10;;;10.40;99.90;;;;;;4961836;28;20058;-83
2023/05/07 03:21:33;;;;;;;8.83;6.00;;;10.40;99.90;;;;;;4959005;28;20081;-84
2023/05/07 03:23:59;;;;;;;8.03;5.73;;;10.40;99.90;;;;;;4958088;28;20039;-84
2023/05/07 03:26:25;;;;;;;9.00;5.43;;;10.40;99.90;;;;;;4958539;28;20045;-84
2023/05/07 03:28:51;;;;;;;8.23;6.20;;;10.30;99.90;;;;;;4957721;28;20041;-84
2023/05/07 03:31:17;;;;;;;10.30;6.20;;;10.30;99.90;;;;;;4964887;28;20585;-83
2023/05/07 03:33:56;;;;;;;10.00;6.80;;;10.30;99.90;;;;;;4964859;28;20046;-84
2023/05/07 03:36:22;;;;;;;9.63;6.40;;;10.30;99.90;;;;;;4967010;28;20762;-84
2023/05/07 03:38:49;;;;;;;8.53;6.27;;;10.30;99.90;;;;;;4965975;28;20038;-84
2023/05/07 03:41:14;;;;;;;11.90;6.73;;;10.20;99.90;;;;;;4965534;28;21763;-84
2023/05/07 03:43:40;;;;;;;8.10;6.80;;;10.20;99.90;;;;;;4963834;28;20195;-84
2023/05/07 03:46:06;;;;;;;10.20;6.80;;;10.20;99.90;;;;;;4965126;28;20194;-84
2023/05/07 03:48:31;;;;;;;9.17;6.83;;;10.20;99.90;;;;;;4966033;28;20067;-84
2023/05/07 03:50:57;;;;;;;14.17;8.30;;;10.20;99.90;;;;;;4964472;28;20034;-84
2023/05/07 03:53:23;;;;;;;8.17;7.30;;;10.20;99.90;;;;;;4963016;28;20074;-84
2023/05/07 03:55:49;;;;;;;9.17;6.87;;;10.20;99.90;;;;;;4964959;28;20035;-84
2023/05/07 03:58:15;;;;;;;9.57;6.40;;;10.20;99.90;;;;;;4967552;28;20054;-84
2023/05/07 04:00:40;;;;;;;8.50;6.43;;;10.20;99.90;;;;;;4949969;28;20053;-84
2023/05/07 04:03:06;;;;;;;8.60;6.23;;;10.20;99.90;;;;;;4965367;28;20035;-84
2023/05/07 04:05:32;;;;;;;10.13;6.90;;;10.10;99.90;;;;;;4963868;28;21368;-84
2023/05/07 04:08:01;;;;;;;9.37;6.83;;;10.10;99.90;;;;;;4964710;28;20078;-84
2023/05/07 04:10:28;;;;;;;9.77;6.57;;;10.10;99.90;;;;;;4966827;28;20988;-83
2023/05/07 04:12:53;;;;;;;9.30;6.50;;;10.20;99.90;;;;;;4966872;28;20030;-84
2023/05/07 04:15:19;;;;;;;9.90;6.17;;;10.10;99.90;;;;;;4962047;28;20063;-84
2023/05/07 04:17:45;;;;;;;8.57;6.47;;;10.20;99.90;;;;;;4965503;28;20046;-84
2023/05/07 04:20:14;;;;;;;10.50;7.10;;;10.20;99.90;;;;;;4966479;28;20098;-84
2023/05/07 04:22:40;;;;;;;11.93;6.60;;;10.20;99.90;;;;;;4969543;28;20033;-84
2023/05/07 04:25:07;;;;;;;8.70;6.90;;;10.20;99.90;;;;;;4966197;28;20043;-83
2023/05/07 04:27:33;;;;;;;10.63;7.00;;;10.20;99.90;;;;;;4969613;28;20125;-83
2023/05/07 04:30:00;;;;;;;8.47;6.60;;;10.20;99.90;;;;;;4979850;28;20169;-84
2023/05/07 04:32:26;;;;;;;7.93;5.63;;;10.20;99.90;;;;;;4972289;28;20109;-84
2023/05/07 04:34:52;;;;;;;12.00;6.43;;;10.20;99.90;;;;;;4971458;28;20241;-84
2023/05/07 04:37:17;;;;;;;11.47;6.50;;;10.20;99.90;;;;;;4975703;28;20073;-84
2023/05/07 04:39:43;;;;;;;10.07;6.43;;;10.20;99.90;;;;;;4969363;28;20035;-85
2023/05/07 04:42:09;;;;;;;8.50;6.47;;;10.30;99.90;;;;;;4972243;28;20034;-86
2023/05/07 04:44:36;;;;;;;9.87;6.03;;;10.30;99.90;;;;;;4971290;28;20031;-86
2023/05/07 04:47:02;;;;;;;9.20;5.80;;;10.40;99.90;;;;;;4972478;28;20038;-86
2023/05/07 04:49:28;;;;;;;7.97;5.70;;;10.50;99.90;;;;;;4967246;28;20671;-78
2023/05/07 04:51:53;;;;;;;9.98;5.70;;;10.70;99.90;;;;;;4964225;28;20030;-78
2023/05/07 04:54:19;;;;;;;7.97;5.63;;;10.80;99.90;;;;;;4964356;28;20070;-79
2023/05/07 04:56:44;;;;;;;6.72;5.10;;;10.90;99.90;;;;;;4974784;28;20035;-85
2023/05/07 04:59:10;;;;;;;9.55;4.95;;;11.00;99.90;;;;;;4977558;28;20077;-86
2023/05/07 05:01:35;;;;;;;6.32;5.20;;;11.10;99.90;;;;;;4974587;28;20291;-85
2023/05/07 05:04:01;;;;;;;7.95;4.97;;;11.10;99.90;;;;;;4977428;28;20109;-85
2023/05/07 05:06:26;;;;;;;6.97;5.15;;;11.10;99.90;;;;;;4975552;28;20035;-85
2023/05/07 05:08:52;;;;;;;5.87;5.27;;;11.20;99.90;;;;;;4977277;28;20026;-85
2023/05/07 05:11:17;;;;;;;8.45;5.57;;;11.20;99.90;;;;;;4977874;28;20034;-85
2023/05/07 05:13:43;;;;;;;9.65;5.63;;;11.20;99.90;;;;;;4977537;28;20054;-85
2023/05/07 05:16:09;;;;;;;9.88;5.30;;;11.20;99.90;;;;;;4978374;28;20130;-86
2023/05/07 05:18:34;;;;;;;10.33;5.77;;;11.30;99.90;;;;;;4974337;28;20042;-85
2023/05/07 05:21:00;;;;;;;10.13;5.53;;;11.30;99.90;;;;;;4975066;28;20035;-85
2023/05/07 05:23:25;;;;;;;9.43;5.40;;;11.30;99.90;;;;;;4974216;28;20038;-85
2023/05/07 05:25:57;;;;;;;6.70;5.30;;;11.40;99.90;;;;;;4948366;28;20039;-85
2023/05/07 05:28:23;;;;;;;6.95;5.40;;;11.50;99.90;;;;;;4963494;28;20039;-86
2023/05/07 05:30:49;;;;;;;5.70;5.15;;;11.60;99.90;;;;;;4965313;28;20029;-85
2023/05/07 05:33:14;;;;;;;6.65;5.32;;;11.60;99.90;;;;;;4962277;28;20058;-88
2023/05/07 05:35:40;;;;;;;7.35;5.63;;;11.70;99.90;;;;;;4957058;28;20034;-88
2023/05/07 05:38:05;;;;;;;9.57;6.30;;;11.80;99.90;;;;;;4957085;28;20042;-91
2023/05/07 05:40:31;;;;;;;7.43;5.85;;;11.80;99.90;;;;;;4957763;28;20046;-89
2023/05/07 05:42:57;;;;;;;8.07;6.38;;;12.00;99.90;;;;;;4958582;28;21509;-93
2023/05/07 05:45:23;;;;;;;9.82;6.53;;;12.10;99.90;;;;;;4956040;28;20031;-90
2023/05/07 05:47:48;;;;;;;10.45;5.95;;;12.20;99.90;;;;;;4955264;28;20038;-90
2023/05/07 05:50:14;;;;;;;8.75;6.38;;;12.30;99.90;;;;;;4955718;28;20039;-90
2023/05/07 05:52:40;;;;;;;8.63;6.22;;;12.40;99.90;;;;;;4957077;28;20026;-90
2023/05/07 05:55:06;;;;;;;9.30;6.30;;;12.50;99.90;;;;;;4956776;28;20479;-90
2023/05/07 05:57:32;;;;;;;10.40;6.72;;;12.70;99.90;;;;;;4956253;28;20034;-92
2023/05/07 05:59:58;;;;;;;8.13;5.95;;;12.90;99.90;;;;;;4955094;28;20104;-86
2023/05/07 06:02:23;;;;;;;7.55;6.22;;;13.10;99.90;;;;;;4955820;28;20178;-88
2023/05/07 06:04:49;;;;;;;8.60;5.60;;;13.30;99.90;;;;;;4957483;28;20033;-88
2023/05/07 06:07:14;;;;;;;8.45;5.68;;;13.50;99.90;;;;;;4957857;28;20132;-88
2023/05/07 06:09:40;;;;;;;6.45;4.97;;;13.70;99.90;;;;;;4955380;28;20836;-88
2023/05/07 06:12:06;;;;;;;7.85;5.15;;;14.00;99.90;;;;;;4956684;28;21250;-88
2023/05/07 06:14:31;;;;;;;8.25;4.90;;;14.20;99.90;;;;;;4956840;28;20515;-86
2023/05/07 06:16:57;;;;;;;6.50;4.47;;;14.40;99.90;;;;;;4956408;28;20038;-85
2023/05/07 06:19:23;;;;;;;7.53;4.85;;;14.60;99.90;;;;;;4951689;28;20664;-87
2023/05/07 06:21:49;;;;;;;5.95;4.53;;;14.80;99.90;;;;;;4955862;28;20034;-85
2023/05/07 06:24:15;;;;;;;5.63;4.35;;;15.00;99.90;;;;;;4959084;28;20130;-86
2023/05/07 06:26:41;;;;;;;7.22;4.80;;;15.10;99.90;;;;;;4956239;28;20034;-86
2023/05/07 06:29:06;;;;;;;9.02;4.97;;;15.30;99.90;;;;;;4958807;28;20094;-85
2023/05/07 06:31:32;;;;;;;9.27;5.63;;;15.40;99.90;;;;;;4958193;28;20038;-85
2023/05/07 06:33:58;;;;;;;6.15;4.45;;;15.50;99.90;;;;;;4960463;28;20077;-86
2023/05/07 06:36:24;;;;;;;7.32;4.53;;;15.60;99.90;;;;;;4954759;28;20127;-90
2023/05/07 06:38:50;;;;;;;7.15;4.80;;;15.70;99.90;;;;;;4953511;28;20663;-88
2023/05/07 06:41:15;;;;;;;7.90;4.60;;;15.80;99.90;;;;;;4951443;28;20037;-87
2023/05/07 06:43:41;;;;;;;9.48;5.07;;;15.90;99.90;;;;;;4954735;28;20038;-87
2023/05/07 06:46:06;;;;;;;9.07;4.65;;;16.00;99.90;;;;;;4952469;28;20027;-87
2023/05/07 06:48:32;;;;;;;5.60;4.60;;;16.20;99.90;;;;;;4956427;28;20031;-86
2023/05/07 06:50:57;;;;;;;10.00;4.70;;;16.30;99.90;;;;;;4966827;28;20038;-86
2023/05/07 06:53:24;;;;;;;7.50;4.70;;;16.30;99.90;;;;;;4955473;28;20054;-85
2023/05/07 06:55:50;;;;;;;9.98;4.70;;;16.40;99.90;;;;;;4956346;28;20051;-85
2023/05/07 06:58:15;;;;;;;10.05;3.92;;;16.40;99.90;;;;;;4938354;28;20031;-86
2023/05/07 07:00:41;;;;;;;7.63;4.07;;;16.50;99.90;;;;;;4935317;28;20034;-86
2023/05/07 07:03:07;;;;;;;5.28;4.15;;;16.60;99.90;;;;;;4953325;28;20039;-87
2023/05/07 07:05:32;;;;;;;8.30;4.15;;;16.70;99.90;;;;;;4954652;28;20500;-83
2023/05/07 07:07:58;;;;;;;7.85;4.00;;;16.70;99.90;;;;;;4956405;28;20158;-84
2023/05/07 07:10:24;;;;;;;4.55;3.53;;;16.80;99.90;;;;;;4955125;28;20191;-85
2023/05/07 07:12:50;;;;;;;7.95;4.07;;;16.90;99.90;;;;;;4953782;28;20047;-85
2023/05/07 07:15:18;;;;;;;6.40;3.63;;;17.00;99.90;;;;;;4958547;28;20047;-91
2023/05/07 07:17:43;;;;;;;5.22;3.53;;;17.20;99.90;;;;;;4960576;28;20038;-90
2023/05/07 07:20:09;;;;;;;7.97;3.85;;;17.20;99.90;;;;;;4962628;28;20046;-81
2023/05/07 07:22:35;;;;;;;7.35;4.30;;;17.20;99.90;;;;;;4953057;28;20039;-75
2023/05/07 07:25:01;;;;;;;8.65;4.15;;;17.30;99.90;;;;;;4947194;28;20042;-75
2023/05/07 07:27:26;;;;;;;4.95;3.63;;;17.40;99.90;;;;;;4951439;28;20057;-76
2023/05/07 07:29:52;;;;;;;4.85;3.72;;;17.50;99.90;;;;;;4954014;28;20055;-75
2023/05/07 07:32:18;;;;;;;7.22;4.18;;;17.60;99.90;;;;;;4953860;28;20047;-76
2023/05/07 07:34:46;;;;;;;6.50;4.53;;;17.70;99.90;;;;;;4951634;28;20683;-74
2023/05/07 07:37:12;;;;;;;6.88;4.65;;;17.70;99.90;;;;;;4950914;28;20126;-76
2023/05/07 07:39:38;;;;;;;5.88;3.95;;;17.90;99.90;;;;;;4949223;28;20039;-76
2023/05/07 07:42:04;;;;;;;6.88;3.28;;;17.90;99.90;;;;;;4951036;28;20129;-74
2023/05/07 07:44:29;;;;;;;6.20;4.07;;;18.00;99.90;;;;;;4950926;28;20027;-74
2023/05/07 07:46:55;;;;;;;5.55;3.90;;;18.10;99.90;;;;;;4950911;28;20958;-73
2023/05/07 07:49:20;;;;;;;6.05;3.83;;;18.20;99.90;;;;;;4950204;28;20027;-73
2023/05/07 07:51:46;;;;;;;4.45;3.30;;;18.20;99.90;;;;;;4962233;28;20042;-79
2023/05/07 07:54:12;;;;;;;3.92;2.67;;;18.30;99.90;;;;;;4967725;28;20114;-80
2023/05/07 07:56:38;;;;;;;5.57;3.80;;;18.30;99.90;;;;;;4972007;28;20027;-80
2023/05/07 07:59:03;;;;;;;5.15;3.20;;;18.30;99.90;;;;;;4970887;28;20031;-80
2023/05/07 08:01:32;;;;;;;6.43;3.08;;;18.40;99.90;;;;;;4971561;28;20030;-80
2023/05/07 08:03:58;;;;;;;4.13;3.10;;;18.50;99.90;;;;;;4971808;28;20051;-78
2023/05/07 08:06:25;;;;;;;4.90;3.25;;;18.60;99.90;;;;;;4973797;28;20049;-80
2023/05/07 08:08:51;;;;;;;5.03;3.40;;;18.60;99.90;;;;;;4972080;28;20034;-79
2023/05/07 08:11:16;;;;;;;5.72;3.50;;;18.70;99.90;;;;;;4965825;28;20042;-78
2023/05/07 08:13:42;;;;;;;4.65;3.00;;;18.80;99.90;;;;;;4963657;28;20487;-77
2023/05/07 08:16:08;;;;;;;4.45;3.10;;;18.90;99.90;;;;;;4965865;28;20036;-78
2023/05/07 08:18:34;;;;;;;5.13;3.17;;;18.90;99.90;;;;;;4961908;28;20632;-79
2023/05/07 08:21:00;;;;;;;4.18;3.25;;;19.00;99.90;;;;;;4965816;28;20027;-79
2023/05/07 08:23:26;;;;;;;4.65;3.38;;;19.00;99.90;;;;;;4967585;28;21494;-73
2023/05/07 08:25:52;;;;;;;8.27;3.30;;;19.10;99.90;;;;;;4968369;28;20031;-84
2023/05/07 08:28:17;;;;;;;6.13;3.30;;;19.10;99.90;;;;;;4968267;28;20035;-80
2023/05/07 08:30:43;;;;;;;4.78;3.22;;;19.10;99.90;;;;;;4967082;28;20027;-77
2023/05/07 08:33:09;;;;;;;5.40;2.90;;;19.10;99.90;;;;;;4965460;28;20022;-77
2023/05/07 08:35:35;;;;;;;4.35;3.17;;;19.20;99.90;;;;;;4963357;28;20026;-78
2023/05/07 08:38:01;;;;;;;7.40;3.47;;;19.30;99.90;;;;;;4964564;28;20169;-78
2023/05/07 08:40:27;;;;;;;7.75;3.60;;;19.50;99.90;;;;;;4964156;28;20042;-79
2023/05/07 08:42:53;;;;;;;3.92;3.25;;;19.50;99.90;;;;;;4967336;28;20061;-78
2023/05/07 08:45:20;;;;;;;4.75;2.70;;;19.60;99.90;;;;;;4967326;28;20031;-79
2023/05/07 08:47:58;;;;;;;6.20;2.40;;;19.60;99.90;;;;;;4965553;28;20285;-78
2023/05/07 08:50:23;;;;;;;3.83;2.75;;;19.70;99.90;;;;;;4964995;28;20061;-78
2023/05/07 08:52:49;;;;;;;4.22;3.25;;;19.70;99.90;;;;;;4965850;28;20480;-78
2023/05/07 08:55:15;;;;;;;4.85;3.05;;;19.70;99.90;;;;;;4964494;28;20081;-78
2023/05/07 08:57:40;;;;;;;6.55;3.50;;;19.80;99.90;;;;;;4966595;28;20054;-78
2023/05/07 09:00:07;;;;;;;5.32;3.03;;;19.90;99.90;;;;;;4966030;28;20090;-78
2023/05/07 09:02:35;;;;;;;4.22;3.10;;;20.00;99.90;;;;;;4965269;28;20042;-78
2023/05/07 09:05:01;;;;;;;4.60;3.13;;;20.10;99.90;;;;;;4965525;28;20934;-78
2023/05/07 09:07:26;;;;;;;5.85;2.80;;;20.30;99.90;;;;;;4968780;28;20039;-78
2023/05/07 09:09:54;;;;;;;5.40;3.25;;;20.30;99.90;;;;;;4966668;28;20096;-78
2023/05/07 09:12:20;;;;;;;8.93;2.90;;;20.40;99.90;;;;;;4970562;28;20423;-78
2023/05/07 09:14:46;;;;;;;4.75;3.10;;;20.50;99.90;;;;;;4963834;28;20045;-78
2023/05/07 09:17:12;;;;;;;3.80;2.63;;;20.70;99.90;;;;;;4964962;28;20031;-79
2023/05/07 09:19:38;;;;;;;5.97;2.90;;;20.70;99.90;;;;;;4964360;28;20046;-79
2023/05/07 09:22:07;;;;;;;5.22;2.97;;;20.70;99.90;;;;;;4962928;28;20035;-78
2023/05/07 09:24:37;;;;;;;7.85;3.25;;;20.90;99.90;;;;;;4966309;28;20109;-79
2023/05/07 09:27:03;;;;;;;4.28;2.67;;;21.00;99.90;;;;;;4966193;28;20035;-78
2023/05/07 09:29:30;;;;;;;4.32;2.85;;;21.10;99.90;;;;;;4964141;28;21344;-78
2023/05/07 09:31:55;;;;;;;3.20;2.10;;;21.20;99.90;;;;;;4963829;28;20049;-79
2023/05/07 09:34:22;;;;;;;4.40;1.88;;;21.40;99.90;;;;;;4966041;28;20030;-79
2023/05/07 09:36:47;;;;;;;4.45;1.95;;;21.40;99.90;;;;;;4966309;28;20966;-79
2023/05/07 09:39:13;;;;;;;4.53;2.15;;;21.50;99.90;;;;;;4964417;28;20125;-78
2023/05/07 09:41:47;;;;;;;6.43;2.38;;;21.60;99.90;;;;;;4965879;28;20150;-79
2023/05/07 09:44:14;;;;;;;3.53;2.13;;;21.70;99.90;;;;;;4963311;28;20038;-79
2023/05/07 09:46:43;;;;;;;3.97;1.80;;;21.70;99.90;;;;;;4966302;28;20117;-79
2023/05/07 09:49:17;;;;;;;3.70;2.10;;;21.90;99.90;;;;;;4966244;28;20649;-78
2023/05/07 09:51:47;;;;;;;3.80;2.38;;;21.90;99.90;;;;;;4965147;28;20023;-79
2023/05/07 09:54:13;;;;;;;2.47;1.60;;;21.90;99.90;;;;;;4964841;28;20567;-79
2023/05/07 09:56:41;;;;;;;4.25;2.20;;;21.90;99.90;;;;;;4963355;28;20109;-78
2023/05/07 09:59:08;;;;;;;8.27;2.35;;;22.00;99.90;;;;;;4965470;28;20123;-78
2023/05/07 10:01:36;;;;;;;4.53;2.42;;;22.10;99.90;;;;;;4964596;28;20433;-78
2023/05/07 10:04:04;;;;;;;3.50;2.25;;;22.30;99.90;;;;;;4965378;28;20073;-78
2023/05/07 10:06:30;;;;;;;3.65;1.60;;;22.40;99.90;;;;;;4964576;28;20057;-78
2023/05/07 10:08:56;;;;;;;2.85;1.80;;;22.40;99.90;;;;;;4966264;28;20037;-78
2023/05/07 10:11:22;;;;;;;6.00;2.50;;;22.20;99.90;;;;;;4965569;28;20031;-78
2023/05/07 10:13:48;;;;;;;3.22;2.13;;;22.30;99.90;;;;;;4965526;28;20479;-77
2023/05/07 10:16:15;;;;;;;3.97;2.60;;;22.40;99.90;;;;;;4961066;28;20035;-77
2023/05/07 10:18:41;;;;;;;4.03;2.30;;;22.50;99.90;;;;;;4960910;28;20058;-77
2023/05/07 10:21:23;;;;;;;4.45;2.13;;;22.50;99.90;;;;;;4959683;28;20185;-77
2023/05/07 10:24:03;;;;;;;3.47;2.08;;;22.50;99.90;;;;;;4959876;28;20093;-77
2023/05/07 10:26:31;;;;;;;2.58;1.70;;;22.60;99.90;;;;;;4960184;28;20035;-78
2023/05/07 10:29:03;;;;;;;4.50;2.50;;;22.70;99.90;;;;;;4961606;28;20134;-77
2023/05/07 10:31:56;;;;;;;7.22;3.45;;;22.80;99.90;;;;;;4960486;28;20652;-77
2023/05/07 10:34:27;;;;;;;4.18;2.00;;;22.90;99.90;;;;;;4959732;28;20043;-79
2023/05/07 10:36:56;;;;;;;3.60;2.20;;;23.20;99.90;;;;;;4962858;28;20054;-78
2023/05/07 10:39:30;;;;;;;4.57;2.15;;;23.30;99.90;;;;;;5051732;27;20435;-78
2023/05/07 10:41:56;;;;;;;8.55;2.80;;;23.60;99.90;;;;;;5045944;28;20029;-78
2023/05/07 10:44:29;;;;;;;5.45;1.90;;;23.70;99.90;;;;;;5043969;28;20036;-77
2023/05/07 10:47:11;;;;;;;4.03;1.70;;;23.70;99.90;;;;;;5045670;28;20037;-79
2023/05/07 10:50:06;;;;;;;4.07;2.17;;;23.60;99.90;;;;;;5043753;28;20571;-78
2023/05/07 10:52:32;;;;;;;3.88;2.10;;;23.60;99.90;;;;;;5042153;28;20116;-78
2023/05/07 10:55:21;;;;;;;4.18;2.30;;;23.50;99.90;;;;;;5043377;28;20126;-78
2023/05/07 10:57:46;;;;;;;5.70;2.53;;;23.40;99.90;;;;;;5045945;28;20844;-80
2023/05/07 11:00:15;;;;;;;4.30;2.65;;;23.20;99.90;;;;;;5044402;28;20155;-80
2023/05/07 11:02:59;;;;;;;3.22;1.80;;;23.20;99.90;;;;;;5044676;28;20453;-79
2023/05/07 11:05:26;;;;;;;4.72;2.00;;;23.30;99.90;;;;;;5045463;28;20143;-78
2023/05/07 11:07:56;;;;;;;3.17;2.20;;;23.20;99.90;;;;;;5044288;28;20037;-78
2023/05/07 11:10:21;;;;;;;19.42;17.77;;;23.30;99.90;;;;;;5041711;28;20030;-78
2023/05/07 11:12:47;;;;;;;5.65;4.95;;;23.20;99.90;;;;;;5041647;28;20054;-77
2023/05/07 11:15:15;;;;;;;2.05;1.67;;;23.50;99.90;;;;;;5042609;28;21405;-78
2023/05/07 11:17:59;;;;;;;3.72;2.30;;;24.00;99.90;;;;;;5041678;28;20094;-77
2023/05/07 11:20:48;;;;;;;4.22;2.13;;;24.00;99.90;;;;;;5037058;28;20029;-72
2023/05/07 11:23:33;;;;;;;3.47;2.30;;;24.10;99.90;;;;;;5039490;28;20524;-72
2023/05/07 11:26:09;;;;;;;4.03;2.28;;;24.30;99.90;;;;;;5036422;28;20778;-70
2023/05/07 11:28:39;;;;;;;4.38;2.08;;;24.40;99.90;;;;;;5036470;28;20037;-75
2023/05/07 11:31:06;;;;;;;3.42;2.10;;;24.30;99.90;;;;;;5038156;28;20720;-77
2023/05/07 11:33:32;;;;;;;5.05;1.85;;;24.40;99.90;;;;;;5038974;28;20031;-76
2023/05/07 11:35:59;;;;;;;3.58;2.08;;;24.40;99.90;;;;;;5037757;28;20033;-76
2023/05/07 11:38:25;;;;;;;3.22;2.00;;;24.60;99.90;;;;;;5039561;28;20080;-76
2023/05/07 11:40:57;;;;;;;4.10;2.35;;;24.80;99.90;;;;;;5039024;28;21398;-74
2023/05/07 11:43:23;;;;;;;3.97;2.30;;;24.90;99.90;;;;;;5039160;28;20920;-75
2023/05/07 11:45:49;;;;;;;3.17;1.85;;;24.70;99.90;;;;;;5039399;28;20025;-76
2023/05/07 11:48:16;;;;;;;4.85;2.67;;;24.60;99.90;;;;;;5038069;28;20121;-76
2023/05/07 11:51:02;;;;;;;4.72;2.00;;;24.70;99.90;;;;;;5025440;28;20029;-76
2023/05/07 11:53:37;;;;;;;2.80;2.03;;;24.50;99.90;;;;;;5025906;28;20037;-73
2023/05/07 11:56:14;;;;;;;6.38;2.38;;;24.40;99.90;;;;;;5025102;28;20049;-73
2023/05/07 11:58:41;;;;;;;2.58;1.73;;;24.40;99.90;;;;;;5025534;28;20124;-73
2023/05/07 12:01:11;;;;;;;4.15;1.90;;;24.30;99.90;;;;;;5024851;28;20026;-74
2023/05/07 12:03:42;;;;;;;5.47;2.20;;;24.30;99.90;;;;;;5024495;28;20451;-73
2023/05/07 12:06:08;;;;;;;4.28;1.80;;;24.40;99.90;;;;;;5022875;28;20030;-74
2023/05/07 12:08:37;;;;;;;3.38;2.05;;;24.40;99.90;;;;;;5025030;28;20156;-73
2023/05/07 12:11:03;;;;;;;2.70;1.63;;;24.40;99.90;;;;;;5024369;28;20068;-73
2023/05/07 12:13:29;;;;;;;3.60;2.08;;;24.30;99.90;;;;;;5024513;28;20116;-74
2023/05/07 12:15:56;;;;;;;2.60;1.90;;;24.40;99.90;;;;;;5024058;28;20029;-74
2023/05/07 12:18:23;;;;;;;3.67;1.70;;;24.50;99.90;;;;;;5023256;28;20151;-77
2023/05/07 12:20:50;;;;;;;4.25;1.80;;;24.50;99.90;;;;;;5024410;28;20406;-74
2023/05/07 12:23:16;;;;;;;8.20;2.15;;;24.60;99.90;;;;;;5024647;28;20033;-75
2023/05/07 12:25:46;;;;;;;2.78;1.77;;;24.60;99.90;;;;;;5024373;28;20056;-74
2023/05/07 12:28:16;;;;;;;3.40;1.85;;;24.70;99.90;;;;;;5024694;28;20673;-75
2023/05/07 12:30:43;;;;;;;2.42;1.60;;;24.80;99.90;;;;;;5023753;28;20152;-75
2023/05/07 12:33:10;;;;;;;4.40;1.90;;;24.80;99.90;;;;;;5025017;28;20120;-74
2023/05/07 12:35:39;;;;;;;4.05;2.08;;;24.70;99.90;;;;;;5023398;28;20034;-74
2023/05/07 12:38:15;;;;;;;15.10;2.60;;;24.80;99.90;;;;;;5024605;28;20422;-74
2023/05/07 12:40:42;;;;;;;5.28;1.70;;;24.80;99.90;;;;;;5022908;28;20448;-75
2023/05/07 12:43:16;;;;;;;4.47;2.08;;;24.70;99.90;;;;;;5024391;28;20026;-74
2023/05/07 12:45:42;;;;;;;3.45;2.00;;;24.70;99.90;;;;;;5023008;28;20485;-75